Terminal Aerodrome Forecast
Issued by NWS Louisville, KY

Home | Current Version | Previous Version | Text Only | Print | Product List | Glossary On
Versions: 1 2 3 4 5 6 7 8 9 10 11 12 13 14 15 16 17 18
037
FTUS43 KLMK 271523 AAA
TAFSDF
TAF AMD
KSDF 271523Z 2715/2818 15007KT P6SM -SHRA FEW008 OVC035
      TEMPO 2715/2717 BKN008 OVC035
     FM271700 15007KT P6SM OVC035
     FM280900 16005KT P6SM OVC025=

USA.gov is the U.S. government's official web portal to all federal, state and local government web resources and services.